Impacts METAR Board INFO
IDs:

KMEM - Memphis Intl, TN, US

Updated at: 1453 UTC 16 Dec 2017
Potential Impact None Slight Moderate High
Time16/02Z 16/03Z 16/04Z 16/05Z 16/06Z 16/07Z 16/08Z 16/09Z 16/10Z 16/11Z 16/12Z 16/13Z 16/14Z
VIS10 10 10 10 10 10 10 10 10 10 10 10 10
CIG-- -- -- -- -- -- -- -- 250 250 250 -- --
CoverCLRCLRCLRCLRCLRCLRSCTCLRBKNBKNBKNSCTSCT
FltCatVFRVFRVFRVFRVFRVFRVFRVFRVFRVFRVFRVFRVFR
WX--------------------------
WDir200190200190200200200190200180190190190
WSpd7 9 9 11 10 11 5 9 10 8 8 7 8
WGst-- -- -- 17 -- -- -- -- -- -- -- -- --
Raw hourly METARs
KMEM 160154Z 20007KT 10SM CLR 03/M03 A3020 RMK AO2 SLP228 T00331028 $
KMEM 160254Z 19009KT 10SM CLR 04/M03 A3020 RMK AO2 SLP227 T00391028 50008 $
KMEM 160354Z 20009KT 10SM CLR 03/M03 A3020 RMK AO2 SLP226 T00331028 $
KMEM 160454Z 19011G17KT 10SM CLR 03/M03 A3020 RMK AO2 SLP228 T00281028 $
KMEM 160554Z 20010KT 10SM CLR 03/M03 A3020 RMK AO2 SLP228 T00281028 10050 20028 400831022 52001 $
KMEM 160654Z 20011KT 10SM CLR 02/M03 A3021 RMK AO2 SLP229 T00221028 $
KMEM 160754Z 20005KT 10SM SCT250 01/M03 A3021 RMK AO2 SLP230 T00111033 $
KMEM 160854Z 19009KT 10SM CLR 02/M03 A3021 RMK AO2 SLP229 T00171028 50002 $
KMEM 160954Z 20010KT 10SM BKN250 02/M03 A3019 RMK AO2 SLP225 T00221028 $
KMEM 161054Z 18008KT 10SM BKN250 01/M03 A3018 RMK AO2 SLP221 T00061028 $
KMEM 161154Z 19008KT 10SM BKN250 01/M03 A3020 RMK AO2 SLP227 T00111028 10028 20006 55003 $
KMEM 161254Z 19007KT 10SM SCT250 00/M03 A3022 RMK AO2 SLP234 T00001028 $
KMEM 161354Z 19008KT 10SM SCT250 02/M02 A3023 RMK AO2 SLP238 T00221017 $